Time;durP1;ratioP1;P1;durP2;ratioP2;P2;SDS_P1;SDS_P2;PMS_P1;PMS_P2;Temp;Humidity;BMP_temperature;BMP_pressure;BME280_temperature;BME280_humidity;BME280_pressure;Samples;Min_cycle;Max_cycle;Signal;HPM_P1;HPM_P2
2023/09/28 00:02:20;;;;;;;3.97;3.43;;;;;;;;;;5003026;28;58145;-78
2023/09/28 00:04:45;;;;;;;3.13;2.83;;;;;;;;;;5007536;28;59497;-79
2023/09/28 00:07:11;;;;;;;4.37;3.40;;;;;;;;;;5004885;28;59767;-79
2023/09/28 00:09:36;;;;;;;3.60;2.53;;;;;;;;;;5003873;28;57994;-78
2023/09/28 00:12:02;;;;;;;3.40;3.08;;;;;;;;;;5003821;28;60652;-78
2023/09/28 00:14:27;;;;;;;4.38;2.60;;;;;;;;;;5004878;28;57961;-78
2023/09/28 00:16:53;;;;;;;3.28;2.50;;;;;;;;;;5004194;28;58482;-78
2023/09/28 00:19:18;;;;;;;4.73;3.33;;;;;;;;;;5006058;28;59243;-79
2023/09/28 00:21:43;;;;;;;5.60;3.00;;;;;;;;;;5004503;28;58223;-78
2023/09/28 00:24:09;;;;;;;3.33;2.57;;;;;;;;;;5006033;28;57889;-78
2023/09/28 00:26:35;;;;;;;4.13;3.03;;;;;;;;;;5004442;28;59056;-78
2023/09/28 00:29:00;;;;;;;4.15;2.55;;;;;;;;;;5004654;28;57760;-78
2023/09/28 00:31:25;;;;;;;2.67;2.47;;;;;;;;;;5006268;28;58711;-78
2023/09/28 00:33:50;;;;;;;3.47;2.40;;;;;;;;;;5004711;28;57822;-78
2023/09/28 00:36:16;;;;;;;4.17;3.07;;;;;;;;;;5004323;28;58112;-78
2023/09/28 00:38:41;;;;;;;2.45;2.22;;;;;;;;;;5005025;28;58144;-78
2023/09/28 00:41:07;;;;;;;3.90;2.58;;;;;;;;;;5004518;28;57888;-78
2023/09/28 00:43:32;;;;;;;3.97;2.40;;;;;;;;;;5004645;28;58720;-78
2023/09/28 00:45:59;;;;;;;3.13;2.53;;;;;;;;;;5000963;28;58871;-78
2023/09/28 00:48:24;;;;;;;3.25;2.50;;;;;;;;;;5005870;28;58021;-78
2023/09/28 00:50:50;;;;;;;3.08;2.50;;;;;;;;;;5003422;28;58472;-78
2023/09/28 00:53:16;;;;;;;3.03;2.72;;;;;;;;;;5004767;28;58081;-78
2023/09/28 00:55:42;;;;;;;3.17;2.37;;;;;;;;;;5006511;28;58324;-78
2023/09/28 00:58:10;;;;;;;3.78;2.85;;;;;;;;;;5003482;28;57841;-80
2023/09/28 01:00:36;;;;;;;3.03;2.65;;;;;;;;;;5003078;28;58103;-80
2023/09/28 01:03:05;;;;;;;2.55;2.10;;;;;;;;;;5003232;28;58778;-81
2023/09/28 01:05:33;;;;;;;3.42;2.55;;;;;;;;;;5003305;28;59846;-80
2023/09/28 01:08:05;;;;;;;3.40;2.83;;;;;;;;;;5005063;28;57903;-80
2023/09/28 01:10:32;;;;;;;2.22;2.03;;;;;;;;;;5002835;28;59893;-80
2023/09/28 01:12:58;;;;;;;2.45;2.20;;;;;;;;;;5002979;28;60260;-80
2023/09/28 01:15:23;;;;;;;2.40;2.20;;;;;;;;;;5006168;28;58199;-81
2023/09/28 01:17:48;;;;;;;2.90;2.20;;;;;;;;;;5001431;28;60544;-80
2023/09/28 01:20:18;;;;;;;2.78;2.50;;;;;;;;;;5004119;28;57916;-81
2023/09/28 01:22:49;;;;;;;2.15;1.90;;;;;;;;;;5003560;28;58191;-81
2023/09/28 01:25:15;;;;;;;2.10;1.90;;;;;;;;;;5004946;28;59272;-81
2023/09/28 01:27:43;;;;;;;2.22;1.80;;;;;;;;;;5005357;28;58207;-80
2023/09/28 01:30:11;;;;;;;2.22;2.03;;;;;;;;;;5006223;28;57874;-80
2023/09/28 01:32:36;;;;;;;3.00;2.30;;;;;;;;;;5002799;28;60205;-77
2023/09/28 01:35:04;;;;;;;2.28;1.83;;;;;;;;;;5001359;28;57996;-79
2023/09/28 01:37:33;;;;;;;2.38;1.52;;;;;;;;;;5006096;28;58695;-80
2023/09/28 01:39:58;;;;;;;2.35;2.15;;;;;;;;;;5003713;28;58077;-80
2023/09/28 01:42:23;;;;;;;2.33;2.13;;;;;;;;;;5006255;28;58081;-77
2023/09/28 01:44:48;;;;;;;2.15;1.95;;;;;;;;;;5004186;28;60512;-79
2023/09/28 01:47:14;;;;;;;2.83;1.70;;;;;;;;;;5004861;28;58064;-77
2023/09/28 01:49:39;;;;;;;1.85;1.52;;;;;;;;;;5002224;28;57900;-79
2023/09/28 01:52:04;;;;;;;2.30;1.60;;;;;;;;;;5002835;28;59062;-79
2023/09/28 01:54:29;;;;;;;1.83;1.73;;;;;;;;;;5004200;28;58169;-79
2023/09/28 01:56:54;;;;;;;2.27;2.07;;;;;;;;;;5003964;28;58373;-79
2023/09/28 01:59:20;;;;;;;2.63;2.03;;;;;;;;;;5004215;28;59344;-79
2023/09/28 02:01:45;;;;;;;2.35;1.88;;;;;;;;;;5002506;28;58031;-79
2023/09/28 02:04:10;;;;;;;2.33;1.80;;;;;;;;;;5001382;28;58766;-80
2023/09/28 02:06:35;;;;;;;1.67;1.58;;;;;;;;;;5004109;28;58033;-79
2023/09/28 02:09:02;;;;;;;1.60;1.43;;;;;;;;;;5003253;28;58535;-79
2023/09/28 02:11:28;;;;;;;1.83;1.73;;;;;;;;;;5000504;28;60773;-79
2023/09/28 02:13:53;;;;;;;2.40;2.20;;;;;;;;;;5003808;28;57907;-79
2023/09/28 02:16:18;;;;;;;1.63;1.52;;;;;;;;;;5004401;28;58652;-79
2023/09/28 02:18:43;;;;;;;1.70;1.58;;;;;;;;;;5003160;28;60110;-79
2023/09/28 02:21:12;;;;;;;2.03;1.88;;;;;;;;;;5005755;28;57910;-79
2023/09/28 02:23:37;;;;;;;1.30;1.20;;;;;;;;;;5001258;28;59133;-79
2023/09/28 02:26:05;;;;;;;1.60;1.50;;;;;;;;;;5002454;28;57955;-79
2023/09/28 02:28:30;;;;;;;1.85;1.70;;;;;;;;;;5005031;28;58403;-79
2023/09/28 02:31:02;;;;;;;1.87;1.73;;;;;;;;;;5002415;28;59576;-79
2023/09/28 02:33:29;;;;;;;1.65;1.55;;;;;;;;;;5001473;28;58078;-79
2023/09/28 02:35:54;;;;;;;2.58;1.80;;;;;;;;;;5004344;28;57756;-79
2023/09/28 02:38:19;;;;;;;2.60;2.37;;;;;;;;;;5002161;28;59909;-79
2023/09/28 02:40:44;;;;;;;1.77;1.60;;;;;;;;;;5004147;28;58020;-77
2023/09/28 02:43:10;;;;;;;1.80;1.67;;;;;;;;;;4999344;28;59897;-78
2023/09/28 02:45:35;;;;;;;1.70;1.60;;;;;;;;;;5001693;28;58185;-78
2023/09/28 02:48:00;;;;;;;1.48;1.38;;;;;;;;;;5001995;28;59685;-78
2023/09/28 02:50:26;;;;;;;1.67;1.58;;;;;;;;;;4999766;28;58781;-78
2023/09/28 02:52:52;;;;;;;1.63;1.52;;;;;;;;;;5002411;28;58275;-78
2023/09/28 02:55:17;;;;;;;1.75;1.65;;;;;;;;;;5003887;28;58656;-78
2023/09/28 02:57:43;;;;;;;1.63;1.52;;;;;;;;;;5002161;28;58924;-79
2023/09/28 03:00:51;;;;;;;1.50;1.40;;;;;;;;;;5004104;28;58181;-80
2023/09/28 03:02:57;;;;;;;1.60;1.50;;;;;;;;;;5005123;28;59611;-80
2023/09/28 03:05:23;;;;;;;1.90;1.80;;;;;;;;;;5003061;28;58144;-79
2023/09/28 03:07:48;;;;;;;2.85;1.73;;;;;;;;;;5003913;28;57810;-80
2023/09/28 03:10:13;;;;;;;1.65;1.55;;;;;;;;;;5001976;28;58995;-80
2023/09/28 03:12:39;;;;;;;1.40;1.30;;;;;;;;;;5001907;28;58008;-80
2023/09/28 03:15:05;;;;;;;1.75;1.65;;;;;;;;;;5001903;28;59360;-80
2023/09/28 03:17:30;;;;;;;1.67;1.58;;;;;;;;;;5002734;28;59812;-80
2023/09/28 03:19:56;;;;;;;1.67;1.53;;;;;;;;;;5002999;28;58174;-80
2023/09/28 03:22:21;;;;;;;1.50;1.40;;;;;;;;;;5003429;28;59648;-80
2023/09/28 03:24:47;;;;;;;1.53;1.43;;;;;;;;;;5002443;28;58171;-80
2023/09/28 03:27:12;;;;;;;1.65;1.55;;;;;;;;;;5004115;28;57829;-81
2023/09/28 03:29:37;;;;;;;1.77;1.67;;;;;;;;;;5001961;28;58786;-80
2023/09/28 03:32:02;;;;;;;1.97;1.60;;;;;;;;;;5001260;28;58039;-80
2023/09/28 03:34:27;;;;;;;1.40;1.30;;;;;;;;;;5004785;28;57812;-78
2023/09/28 03:36:52;;;;;;;1.50;1.33;;;;;;;;;;5002850;28;58364;-80
2023/09/28 03:39:18;;;;;;;1.60;1.50;;;;;;;;;;5001894;28;58175;-80
2023/09/28 03:41:44;;;;;;;1.90;1.80;;;;;;;;;;5003840;28;58223;-80
2023/09/28 03:44:09;;;;;;;1.40;1.30;;;;;;;;;;5001962;28;59438;-80
2023/09/28 03:46:34;;;;;;;1.90;1.80;;;;;;;;;;5004331;28;58060;-81
2023/09/28 03:48:59;;;;;;;1.58;1.48;;;;;;;;;;4999485;28;59356;-80
2023/09/28 03:51:25;;;;;;;1.27;1.27;;;;;;;;;;5003220;28;58078;-80
2023/09/28 03:53:50;;;;;;;1.80;1.70;;;;;;;;;;5002098;28;58429;-80
2023/09/28 03:56:15;;;;;;;1.20;1.10;;;;;;;;;;5001027;28;58954;-80
2023/09/28 03:58:40;;;;;;;1.70;1.60;;;;;;;;;;5002912;28;58030;-80
2023/09/28 04:01:07;;;;;;;1.40;1.30;;;;;;;;;;5002619;28;58105;-81
2023/09/28 04:03:33;;;;;;;1.75;1.65;;;;;;;;;;4995016;28;61190;-80
2023/09/28 04:05:58;;;;;;;1.85;1.60;;;;;;;;;;4996971;28;58094;-81
2023/09/28 04:08:23;;;;;;;1.97;1.87;;;;;;;;;;5001949;28;58582;-80
2023/09/28 04:10:50;;;;;;;1.52;1.42;;;;;;;;;;5001395;28;58006;-80
2023/09/28 04:13:15;;;;;;;1.63;1.40;;;;;;;;;;5000397;28;58558;-81
2023/09/28 04:15:40;;;;;;;1.07;1.07;;;;;;;;;;4999197;28;58351;-80
2023/09/28 04:18:06;;;;;;;1.50;1.40;;;;;;;;;;4996139;28;57990;-81
2023/09/28 04:20:31;;;;;;;1.67;1.50;;;;;;;;;;4993956;28;58510;-81
2023/09/28 04:22:57;;;;;;;1.40;1.30;;;;;;;;;;4996331;28;59902;-82
2023/09/28 04:25:26;;;;;;;1.20;1.10;;;;;;;;;;5000669;28;57874;-81
2023/09/28 04:27:51;;;;;;;1.80;1.70;;;;;;;;;;5002519;28;58732;-81
2023/09/28 04:30:16;;;;;;;1.27;1.20;;;;;;;;;;5001959;28;58166;-81
2023/09/28 04:32:41;;;;;;;1.53;1.40;;;;;;;;;;5001439;28;60062;-81
2023/09/28 04:35:10;;;;;;;1.37;1.27;;;;;;;;;;4998045;28;58239;-81
2023/09/28 04:37:35;;;;;;;1.70;1.58;;;;;;;;;;5005023;28;57954;-81
2023/09/28 04:40:00;;;;;;;1.70;1.60;;;;;;;;;;5001405;28;59890;-81
2023/09/28 04:42:26;;;;;;;1.20;1.10;;;;;;;;;;5001691;28;59779;-81
2023/09/28 04:44:51;;;;;;;1.27;1.17;;;;;;;;;;5002971;28;57942;-82
2023/09/28 04:47:16;;;;;;;1.60;1.50;;;;;;;;;;5002588;28;58698;-82
2023/09/28 04:49:41;;;;;;;1.10;1.10;;;;;;;;;;5004015;28;58443;-82
2023/09/28 04:52:07;;;;;;;1.30;1.20;;;;;;;;;;5002599;28;59997;-81
2023/09/28 04:54:33;;;;;;;1.50;1.40;;;;;;;;;;4996828;28;58912;-81
2023/09/28 04:56:58;;;;;;;1.10;1.00;;;;;;;;;;4999512;28;58138;-80
2023/09/28 04:59:23;;;;;;;1.37;1.33;;;;;;;;;;4999253;28;58616;-80
2023/09/28 05:01:48;;;;;;;1.65;1.55;;;;;;;;;;5000986;28;59407;-79
2023/09/28 05:04:13;;;;;;;2.73;1.40;;;;;;;;;;5003351;28;57872;-79
2023/09/28 05:06:40;;;;;;;1.67;1.30;;;;;;;;;;5004014;28;59433;-79
2023/09/28 05:09:05;;;;;;;2.20;1.30;;;;;;;;;;5002866;28;59048;-79
2023/09/28 05:11:30;;;;;;;1.40;1.30;;;;;;;;;;5005737;28;57975;-79
2023/09/28 05:13:55;;;;;;;1.50;1.40;;;;;;;;;;5005298;28;58764;-80
2023/09/28 05:16:21;;;;;;;1.37;1.27;;;;;;;;;;5005719;28;58185;-79
2023/09/28 05:18:46;;;;;;;1.50;1.35;;;;;;;;;;5003898;28;58543;-79
2023/09/28 05:21:12;;;;;;;1.27;1.20;;;;;;;;;;5004825;28;59947;-79
2023/09/28 05:23:37;;;;;;;1.30;1.20;;;;;;;;;;5005512;28;58101;-79
2023/09/28 05:26:03;;;;;;;1.67;1.58;;;;;;;;;;5005597;28;58091;-79
2023/09/28 05:28:28;;;;;;;1.63;1.52;;;;;;;;;;5004219;28;58800;-79
2023/09/28 05:30:54;;;;;;;1.05;1.05;;;;;;;;;;5006246;28;58674;-78
2023/09/28 05:33:19;;;;;;;1.88;1.25;;;;;;;;;;5004426;28;58451;-78
2023/09/28 05:35:46;;;;;;;1.40;1.30;;;;;;;;;;5006500;28;58172;-77
2023/09/28 05:38:11;;;;;;;1.25;1.20;;;;;;;;;;5004980;28;58622;-78
2023/09/28 05:40:36;;;;;;;1.50;1.40;;;;;;;;;;5004162;28;59791;-78
2023/09/28 05:43:01;;;;;;;1.33;1.23;;;;;;;;;;5003422;28;57879;-78
2023/09/28 05:45:26;;;;;;;2.03;1.67;;;;;;;;;;5006197;28;58535;-77
2023/09/28 05:47:51;;;;;;;1.30;1.20;;;;;;;;;;5003737;28;59085;-78
2023/09/28 05:50:18;;;;;;;1.30;1.20;;;;;;;;;;5005939;28;57878;-78
2023/09/28 05:52:43;;;;;;;1.25;1.15;;;;;;;;;;5006819;28;59460;-78
2023/09/28 05:55:09;;;;;;;1.40;1.30;;;;;;;;;;5006419;28;57845;-78
2023/09/28 05:57:34;;;;;;;1.27;1.17;;;;;;;;;;5006923;28;59473;-78
2023/09/28 05:59:59;;;;;;;1.57;1.47;;;;;;;;;;5005504;28;59762;-77
2023/09/28 06:02:25;;;;;;;1.50;1.20;;;;;;;;;;5006295;28;58164;-77
2023/09/28 06:04:50;;;;;;;1.40;1.30;;;;;;;;;;5006102;28;57854;-78
2023/09/28 06:07:15;;;;;;;1.50;1.40;;;;;;;;;;5003738;28;58390;-78
2023/09/28 06:09:41;;;;;;;1.30;1.20;;;;;;;;;;5006644;28;58053;-78
2023/09/28 06:12:06;;;;;;;2.03;1.33;;;;;;;;;;5004767;28;59496;-80
2023/09/28 06:14:31;;;;;;;1.30;1.23;;;;;;;;;;5005300;28;59826;-79
2023/09/28 06:16:57;;;;;;;1.67;1.52;;;;;;;;;;5006446;28;58139;-79
2023/09/28 06:19:22;;;;;;;1.30;1.20;;;;;;;;;;5004662;28;60061;-79
2023/09/28 06:21:47;;;;;;;1.20;1.10;;;;;;;;;;5006001;28;58208;-79
2023/09/28 06:24:12;;;;;;;2.57;1.50;;;;;;;;;;5006978;28;58554;-79
2023/09/28 06:26:37;;;;;;;1.40;1.30;;;;;;;;;;5005192;28;59600;-79
2023/09/28 06:29:03;;;;;;;1.48;1.38;;;;;;;;;;5005361;28;58107;-79
2023/09/28 06:31:28;;;;;;;1.30;1.20;;;;;;;;;;5006836;28;57810;-79
2023/09/28 06:33:54;;;;;;;1.43;1.33;;;;;;;;;;5006417;28;58115;-79
2023/09/28 06:36:19;;;;;;;1.33;1.23;;;;;;;;;;5009773;28;57957;-78
2023/09/28 06:38:44;;;;;;;1.63;1.40;;;;;;;;;;5008519;28;58529;-77
2023/09/28 06:41:09;;;;;;;1.50;1.40;;;;;;;;;;5008764;28;58110;-78
2023/09/28 06:43:35;;;;;;;1.33;1.23;;;;;;;;;;5008604;28;58659;-78
2023/09/28 06:46:00;;;;;;;1.23;1.13;;;;;;;;;;5006961;28;58817;-78
2023/09/28 06:48:26;;;;;;;1.58;1.48;;;;;;;;;;5009831;28;57783;-79
2023/09/28 06:50:52;;;;;;;1.30;1.20;;;;;;;;;;5005515;28;58898;-79
2023/09/28 06:53:18;;;;;;;1.55;1.45;;;;;;;;;;5004840;28;59316;-78
2023/09/28 06:55:44;;;;;;;1.67;1.58;;;;;;;;;;5006065;28;58121;-80
2023/09/28 06:58:13;;;;;;;1.20;1.20;;;;;;;;;;5003981;28;58127;-78
2023/09/28 07:00:38;;;;;;;1.48;1.38;;;;;;;;;;5005701;28;58090;-78
2023/09/28 07:03:05;;;;;;;1.37;1.13;;;;;;;;;;5004537;28;58883;-78
2023/09/28 07:05:33;;;;;;;1.13;1.13;;;;;;;;;;5006260;28;59765;-77
2023/09/28 07:07:58;;;;;;;;;;;;;;;;;;5008978;28;57815;-77
2023/09/28 07:10:23;;;;;;;1.37;1.27;;;;;;;;;;5007866;28;62746;-78
2023/09/28 07:12:49;;;;;;;1.50;1.40;;;;;;;;;;5007927;28;58184;-78
2023/09/28 07:15:14;;;;;;;2.00;1.80;;;;;;;;;;5010046;28;57979;-78
2023/09/28 07:17:39;;;;;;;1.73;1.63;;;;;;;;;;5010619;28;57942;-78
2023/09/28 07:20:05;;;;;;;1.27;1.17;;;;;;;;;;5012067;28;58828;-78
2023/09/28 07:22:30;;;;;;;1.48;1.38;;;;;;;;;;5012721;28;58515;-78
2023/09/28 07:24:56;;;;;;;1.60;1.50;;;;;;;;;;5010858;28;58334;-78
2023/09/28 07:27:21;;;;;;;1.58;1.35;;;;;;;;;;5010611;28;57880;-78
2023/09/28 07:29:46;;;;;;;1.20;1.20;;;;;;;;;;5007978;28;57936;-78
2023/09/28 07:32:11;;;;;;;1.77;1.65;;;;;;;;;;5007736;28;58725;-78
2023/09/28 07:34:37;;;;;;;1.67;1.57;;;;;;;;;;5012180;28;57874;-78
2023/09/28 07:37:03;;;;;;;1.40;1.30;;;;;;;;;;5009717;28;58143;-78
2023/09/28 07:39:29;;;;;;;1.60;1.50;;;;;;;;;;5008415;28;59122;-78
2023/09/28 07:41:54;;;;;;;1.20;1.10;;;;;;;;;;5010223;28;58173;-78
2023/09/28 07:44:19;;;;;;;1.40;1.30;;;;;;;;;;5004737;28;57901;-78
2023/09/28 07:46:45;;;;;;;1.60;1.50;;;;;;;;;;5009703;28;58075;-79
2023/09/28 07:49:10;;;;;;;1.40;1.30;;;;;;;;;;5008803;28;58645;-78
2023/09/28 07:51:36;;;;;;;1.40;1.27;;;;;;;;;;5008947;28;60001;-78
2023/09/28 07:54:01;;;;;;;1.40;1.30;;;;;;;;;;5008641;28;57926;-78
2023/09/28 07:56:26;;;;;;;1.60;1.37;;;;;;;;;;5008045;28;57725;-79
2023/09/28 07:58:51;;;;;;;1.27;1.15;;;;;;;;;;5006601;28;58871;-78
2023/09/28 08:01:17;;;;;;;1.13;1.02;;;;;;;;;;5008809;28;58175;-79
2023/09/28 08:03:42;;;;;;;1.48;1.35;;;;;;;;;;5008474;28;58369;-78
2023/09/28 08:06:09;;;;;;;0.88;0.88;;;;;;;;;;5007810;28;57771;-78
2023/09/28 08:08:34;;;;;;;1.20;1.15;;;;;;;;;;5004887;28;58072;-78
2023/09/28 08:11:00;;;;;;;1.10;1.00;;;;;;;;;;5009497;28;57972;-78
2023/09/28 08:13:25;;;;;;;1.27;1.15;;;;;;;;;;5009318;28;57822;-78
2023/09/28 08:15:51;;;;;;;1.47;1.37;;;;;;;;;;5011318;28;57838;-79
2023/09/28 08:18:16;;;;;;;1.23;1.13;;;;;;;;;;5010100;28;58858;-79
2023/09/28 08:20:41;;;;;;;0.87;0.87;;;;;;;;;;5011671;28;57982;-78
2023/09/28 08:23:06;;;;;;;1.63;1.37;;;;;;;;;;5008738;28;58403;-78
2023/09/28 08:25:31;;;;;;;1.03;0.93;;;;;;;;;;5008131;28;60402;-79
2023/09/28 08:27:57;;;;;;;1.10;0.93;;;;;;;;;;5011548;28;58462;-79
2023/09/28 08:30:22;;;;;;;0.90;0.90;;;;;;;;;;5007976;28;59792;-79
2023/09/28 08:32:47;;;;;;;1.23;1.17;;;;;;;;;;5012656;28;57830;-78
2023/09/28 08:35:12;;;;;;;1.30;1.20;;;;;;;;;;5007522;28;58628;-79
2023/09/28 08:37:38;;;;;;;1.20;1.10;;;;;;;;;;5009041;28;59249;-78
2023/09/28 08:40:04;;;;;;;1.10;1.00;;;;;;;;;;5007317;28;58175;-79
2023/09/28 08:42:30;;;;;;;0.88;0.88;;;;;;;;;;5007090;28;59579;-79
2023/09/28 08:45:02;;;;;;;1.10;1.00;;;;;;;;;;5011990;28;59114;-79
2023/09/28 08:47:38;;;;;;;1.40;1.17;;;;;;;;;;5011241;28;59311;-79
2023/09/28 08:50:04;;;;;;;1.48;1.27;;;;;;;;;;5007057;28;59082;-79
2023/09/28 08:52:30;;;;;;;1.00;1.00;;;;;;;;;;5009038;28;57989;-78
2023/09/28 08:54:55;;;;;;;1.23;1.13;;;;;;;;;;5007418;28;58692;-79
2023/09/28 08:57:21;;;;;;;1.75;1.00;;;;;;;;;;5006148;28;58801;-79
2023/09/28 08:59:48;;;;;;;0.93;0.80;;;;;;;;;;5006177;28;58344;-78
2023/09/28 09:02:14;;;;;;;1.15;1.13;;;;;;;;;;5007062;28;59778;-79
2023/09/28 09:04:42;;;;;;;1.25;1.20;;;;;;;;;;5005909;28;59069;-78
2023/09/28 09:07:07;;;;;;;1.07;0.87;;;;;;;;;;5004947;28;58116;-79
2023/09/28 09:09:33;;;;;;;1.20;1.10;;;;;;;;;;5005739;28;58631;-78
2023/09/28 09:11:59;;;;;;;1.02;0.93;;;;;;;;;;5005009;28;58035;-78
2023/09/28 09:14:28;;;;;;;1.42;0.98;;;;;;;;;;5006599;28;58422;-78
2023/09/28 09:16:53;;;;;;;1.83;1.70;;;;;;;;;;5004125;28;58991;-78
2023/09/28 09:19:18;;;;;;;0.75;0.73;;;;;;;;;;5005148;28;59258;-78
2023/09/28 09:21:44;;;;;;;0.80;0.80;;;;;;;;;;5002939;28;58557;-78
2023/09/28 09:24:11;;;;;;;1.17;1.08;;;;;;;;;;5004249;28;59262;-78
2023/09/28 09:26:46;;;;;;;0.98;0.90;;;;;;;;;;5003061;28;58071;-78
2023/09/28 09:29:12;;;;;;;1.02;0.95;;;;;;;;;;5005747;28;57970;-78
2023/09/28 09:31:41;;;;;;;0.73;0.73;;;;;;;;;;5006000;28;57819;-78
2023/09/28 09:34:13;;;;;;;1.48;1.20;;;;;;;;;;5004462;28;57969;-78
2023/09/28 09:36:39;;;;;;;0.88;0.88;;;;;;;;;;5003724;28;59058;-78
2023/09/28 09:39:04;;;;;;;2.00;0.85;;;;;;;;;;5004002;28;58093;-78
2023/09/28 09:41:29;;;;;;;1.23;0.80;;;;;;;;;;4999762;28;58460;-77
2023/09/28 09:43:57;;;;;;;1.20;0.80;;;;;;;;;;4983623;28;58904;-77
2023/09/28 09:46:24;;;;;;;1.93;0.80;;;;;;;;;;5004810;28;57899;-77
2023/09/28 09:48:50;;;;;;;0.57;0.53;;;;;;;;;;5003260;28;58103;-77
2023/09/28 09:51:16;;;;;;;1.02;0.93;;;;;;;;;;5005267;28;59974;-77
2023/09/28 09:53:42;;;;;;;1.75;1.05;;;;;;;;;;5001892;28;60317;-77
2023/09/28 09:56:07;;;;;;;1.35;1.10;;;;;;;;;;5003677;28;59246;-76
2023/09/28 09:58:37;;;;;;;1.75;0.98;;;;;;;;;;5005664;28;57866;-77
2023/09/28 10:01:04;;;;;;;1.15;0.95;;;;;;;;;;5004617;28;59428;-77
2023/09/28 10:03:29;;;;;;;3.33;1.42;;;;;;;;;;5003269;28;59135;-77
2023/09/28 10:05:56;;;;;;;1.00;0.70;;;;;;;;;;5003531;28;58170;-77
2023/09/28 10:08:21;;;;;;;0.60;0.60;;;;;;;;;;5004335;28;59693;-77
2023/09/28 10:10:46;;;;;;;1.23;0.93;;;;;;;;;;5002485;28;58781;-78
2023/09/28 10:13:13;;;;;;;0.73;0.73;;;;;;;;;;5006036;28;58199;-77
2023/09/28 10:15:38;;;;;;;1.50;0.82;;;;;;;;;;5001901;28;59213;-77
2023/09/28 10:18:05;;;;;;;0.85;0.85;;;;;;;;;;5000275;28;58029;-77
2023/09/28 10:20:30;;;;;;;1.63;0.90;;;;;;;;;;5003428;28;58564;-77
2023/09/28 10:22:56;;;;;;;1.02;0.80;;;;;;;;;;5003308;28;58204;-77
2023/09/28 10:25:23;;;;;;;1.30;0.60;;;;;;;;;;5003529;28;58001;-77
2023/09/28 10:27:48;;;;;;;1.05;0.75;;;;;;;;;;5004011;28;59787;-77
2023/09/28 10:30:17;;;;;;;0.97;0.80;;;;;;;;;;5003587;28;59290;-77
2023/09/28 10:32:42;;;;;;;1.10;1.00;;;;;;;;;;5003107;28;58193;-77
2023/09/28 10:35:19;;;;;;;1.57;0.73;;;;;;;;;;5002680;28;57959;-77
2023/09/28 10:38:05;;;;;;;0.50;0.50;;;;;;;;;;5003937;28;57707;-77
2023/09/28 10:40:33;;;;;;;2.83;0.93;;;;;;;;;;5003326;28;63832;-77
2023/09/28 10:43:09;;;;;;;1.40;1.03;;;;;;;;;;5002540;28;58187;-77
2023/09/28 10:45:37;;;;;;;1.23;0.90;;;;;;;;;;5004110;28;58011;-77
2023/09/28 10:48:02;;;;;;;1.45;0.85;;;;;;;;;;5003039;28;58780;-77
2023/09/28 10:50:28;;;;;;;1.17;0.80;;;;;;;;;;5002817;28;59150;-77
2023/09/28 10:52:53;;;;;;;1.58;1.17;;;;;;;;;;5002444;28;57930;-78
2023/09/28 10:55:19;;;;;;;0.97;0.70;;;;;;;;;;5003640;28;59709;-78
2023/09/28 10:57:44;;;;;;;0.88;0.63;;;;;;;;;;5002271;28;57957;-79
2023/09/28 11:00:12;;;;;;;1.67;0.93;;;;;;;;;;5004547;28;58691;-79
2023/09/28 11:02:37;;;;;;;1.60;0.95;;;;;;;;;;5002277;28;58529;-78
2023/09/28 11:05:04;;;;;;;1.65;0.82;;;;;;;;;;5003913;28;58187;-78
2023/09/28 11:07:30;;;;;;;0.93;0.80;;;;;;;;;;5004014;28;58641;-78
2023/09/28 11:09:55;;;;;;;0.97;0.60;;;;;;;;;;5001814;28;58849;-78
2023/09/28 11:12:21;;;;;;;1.37;0.70;;;;;;;;;;5003100;28;58162;-78
2023/09/28 11:14:47;;;;;;;1.35;0.50;;;;;;;;;;5003705;28;60019;-78
2023/09/28 11:17:12;;;;;;;1.25;0.50;;;;;;;;;;5002460;28;60094;-79
2023/09/28 11:19:37;;;;;;;0.70;0.70;;;;;;;;;;5003823;28;60237;-78
2023/09/28 11:22:02;;;;;;;1.40;1.10;;;;;;;;;;5003338;28;59155;-78
2023/09/28 11:24:27;;;;;;;0.93;0.77;;;;;;;;;;5003064;28;58124;-78
2023/09/28 11:26:53;;;;;;;1.10;0.87;;;;;;;;;;5003537;28;59308;-78
2023/09/28 11:29:19;;;;;;;0.98;0.70;;;;;;;;;;4999893;28;58879;-78
2023/09/28 11:31:48;;;;;;;1.27;0.82;;;;;;;;;;5004633;28;57881;-78
2023/09/28 11:34:14;;;;;;;1.38;1.27;;;;;;;;;;5001595;28;59884;-78
2023/09/28 11:36:40;;;;;;;1.67;0.50;;;;;;;;;;5002485;28;58002;-78
2023/09/28 11:39:06;;;;;;;2.35;0.93;;;;;;;;;;5003132;28;57880;-78
2023/09/28 11:41:31;;;;;;;0.80;0.63;;;;;;;;;;4999513;28;58747;-78
2023/09/28 11:43:56;;;;;;;0.50;0.47;;;;;;;;;;5004298;28;58045;-81
2023/09/28 11:46:22;;;;;;;1.27;0.83;;;;;;;;;;5002683;28;59321;-78
2023/09/28 11:48:47;;;;;;;1.17;0.65;;;;;;;;;;5004650;28;59176;-77
2023/09/28 11:51:14;;;;;;;1.27;0.70;;;;;;;;;;5003913;28;58421;-77
2023/09/28 11:53:41;;;;;;;0.50;0.50;;;;;;;;;;5005291;28;59837;-77
2023/09/28 11:56:06;;;;;;;1.95;1.00;;;;;;;;;;5005187;28;59544;-78
2023/09/28 11:58:34;;;;;;;1.23;0.80;;;;;;;;;;5005620;28;58404;-77
2023/09/28 12:00:59;;;;;;;1.08;0.75;;;;;;;;;;5005246;28;59648;-77
2023/09/28 12:03:24;;;;;;;0.82;0.70;;;;;;;;;;5006281;28;58345;-76
2023/09/28 12:05:49;;;;;;;0.77;0.77;;;;;;;;;;5004759;28;60419;-76
2023/09/28 12:08:14;;;;;;;1.03;0.93;;;;;;;;;;5004046;28;58481;-76
2023/09/28 12:10:40;;;;;;;0.70;0.70;;;;;;;;;;5006349;28;58422;-76
2023/09/28 12:13:05;;;;;;;1.10;0.80;;;;;;;;;;5005412;28;60269;-76
2023/09/28 12:15:30;;;;;;;1.10;0.70;;;;;;;;;;5005057;28;60546;-76
2023/09/28 12:17:56;;;;;;;1.03;0.93;;;;;;;;;;5005303;28;58460;-76
2023/09/28 12:20:21;;;;;;;1.23;0.90;;;;;;;;;;5005666;28;59530;-76
2023/09/28 12:22:47;;;;;;;0.90;0.60;;;;;;;;;;5006525;28;59631;-76
2023/09/28 12:25:13;;;;;;;1.60;1.17;;;;;;;;;;5004830;28;60340;-76
2023/09/28 12:27:39;;;;;;;1.27;1.02;;;;;;;;;;5005250;28;58886;-76
2023/09/28 12:30:06;;;;;;;0.80;0.60;;;;;;;;;;5006407;28;58217;-75
2023/09/28 12:32:31;;;;;;;0.75;0.60;;;;;;;;;;5003899;28;59384;-73
2023/09/28 12:34:57;;;;;;;1.02;0.70;;;;;;;;;;5005635;28;58980;-77
2023/09/28 12:37:22;;;;;;;1.27;0.93;;;;;;;;;;5003852;28;58523;-78
2023/09/28 12:39:48;;;;;;;0.50;0.50;;;;;;;;;;5002443;28;59851;-78
2023/09/28 12:42:15;;;;;;;0.60;0.60;;;;;;;;;;5004180;28;59828;-78
2023/09/28 12:44:40;;;;;;;0.43;0.43;;;;;;;;;;5006301;28;58570;-78
2023/09/28 12:47:06;;;;;;;1.60;0.77;;;;;;;;;;5001069;28;59712;-77
2023/09/28 12:49:31;;;;;;;0.52;0.40;;;;;;;;;;5005016;28;58514;-78
2023/09/28 12:51:56;;;;;;;1.03;0.67;;;;;;;;;;5003076;28;59699;-78
2023/09/28 12:54:22;;;;;;;0.85;0.60;;;;;;;;;;5003635;28;58726;-78
2023/09/28 12:56:47;;;;;;;0.95;0.70;;;;;;;;;;5004212;28;58608;-78
2023/09/28 12:59:15;;;;;;;0.80;0.40;;;;;;;;;;5004658;28;61028;-78
2023/09/28 13:01:41;;;;;;;0.93;0.75;;;;;;;;;;5005018;28;60644;-78
2023/09/28 13:04:06;;;;;;;0.82;0.70;;;;;;;;;;5005479;28;58432;-78
2023/09/28 13:06:32;;;;;;;1.37;0.50;;;;;;;;;;5004731;28;59248;-78
2023/09/28 13:09:00;;;;;;;1.38;1.00;;;;;;;;;;5004814;28;58441;-78
2023/09/28 13:11:26;;;;;;;1.20;0.47;;;;;;;;;;5005786;28;59399;-78
2023/09/28 13:13:51;;;;;;;0.70;0.60;;;;;;;;;;5006287;28;58862;-78
2023/09/28 13:16:20;;;;;;;1.55;0.70;;;;;;;;;;5005053;28;58626;-78
2023/09/28 13:18:46;;;;;;;1.00;0.73;;;;;;;;;;5004191;28;60237;-78
2023/09/28 13:21:12;;;;;;;1.23;0.60;;;;;;;;;;5003534;28;59739;-78
2023/09/28 13:23:37;;;;;;;1.65;1.02;;;;;;;;;;5004977;28;58462;-78
2023/09/28 13:26:04;;;;;;;1.33;0.60;;;;;;;;;;5005614;28;58850;-78
2023/09/28 13:28:29;;;;;;;1.25;1.15;;;;;;;;;;5004682;28;58315;-77
2023/09/28 13:30:57;;;;;;;1.17;0.80;;;;;;;;;;5005600;28;58443;-78
2023/09/28 13:33:23;;;;;;;1.48;0.70;;;;;;;;;;5003785;28;58452;-78
2023/09/28 13:35:49;;;;;;;0.70;0.70;;;;;;;;;;5003210;28;59170;-78
2023/09/28 13:38:14;;;;;;;0.80;0.50;;;;;;;;;;5002999;28;59560;-78
2023/09/28 13:40:40;;;;;;;1.00;0.60;;;;;;;;;;5005839;28;59885;-77
2023/09/28 13:43:05;;;;;;;0.73;0.73;;;;;;;;;;5003153;28;58507;-78
2023/09/28 13:45:31;;;;;;;1.27;0.80;;;;;;;;;;5004998;28;60441;-78
2023/09/28 13:47:58;;;;;;;1.08;0.60;;;;;;;;;;5004098;28;60254;-78
2023/09/28 13:50:27;;;;;;;1.97;1.43;;;;;;;;;;5003146;28;58765;-77
2023/09/28 13:52:53;;;;;;;1.48;0.90;;;;;;;;;;5004380;28;59085;-77
2023/09/28 13:55:19;;;;;;;2.15;1.20;;;;;;;;;;5004139;28;58598;-77
2023/09/28 13:57:47;;;;;;;0.63;0.52;;;;;;;;;;5004042;28;59623;-78
2023/09/28 14:00:21;;;;;;;1.17;0.60;;;;;;;;;;5004136;28;59320;-78
2023/09/28 14:02:46;;;;;;;1.15;0.85;;;;;;;;;;5003657;28;58617;-78
2023/09/28 14:05:13;;;;;;;0.75;0.60;;;;;;;;;;5003718;28;60257;-78
2023/09/28 14:07:38;;;;;;;2.33;0.90;;;;;;;;;;5004951;28;59191;-78
2023/09/28 14:10:03;;;;;;;0.83;0.50;;;;;;;;;;5004107;28;58467;-78
2023/09/28 14:12:29;;;;;;;0.93;0.75;;;;;;;;;;5002046;28;60349;-78
2023/09/28 14:14:54;;;;;;;0.85;0.65;;;;;;;;;;5003874;28;58373;-78
2023/09/28 14:17:20;;;;;;;1.40;0.75;;;;;;;;;;5005156;28;58512;-78
2023/09/28 14:19:45;;;;;;;1.92;0.80;;;;;;;;;;5003219;28;58385;-77
2023/09/28 14:22:10;;;;;;;1.00;0.65;;;;;;;;;;5003741;28;58384;-78
2023/09/28 14:24:35;;;;;;;0.75;0.50;;;;;;;;;;5004212;28;60838;-78
2023/09/28 14:27:00;;;;;;;2.15;0.93;;;;;;;;;;5002927;28;58887;-78
2023/09/28 14:29:26;;;;;;;0.60;0.50;;;;;;;;;;5003885;28;58468;-78
2023/09/28 14:31:54;;;;;;;1.48;1.13;;;;;;;;;;5005288;28;59112;-80
2023/09/28 14:34:19;;;;;;;0.57;0.40;;;;;;;;;;5003970;28;58462;-81
2023/09/28 14:36:45;;;;;;;0.60;0.60;;;;;;;;;;5004676;28;61225;-80